Архив погоды в Лукоянове

Метеограмма Лукоянов
Четверг, 26 Апреля
Время местн. Темп Ветер Видим Явления Облачность нижн/средн/верх Атм. давл. Влжн Точка росы ВНГО R Сост. почвы Tg s
Напр Скр Прв ур.ст ур.м изм
12:00 +11.3° Ю 2 5 10 км - облачно 733 753 -0.8 80% +8° 1 км - - - -
09:00 +7.4° Ю 2 4 4 км дымка {ливневые осадки} облачно 734 754 -0.3 97% +7° 600 м - - - -
06:00 +6.4° Ю,Ю-В 2 4 4 км слабый ливневый дождь облачно 734 754 -0.9 97% +6° 600 м 0 Влажная (без луж) +6° -
03:00 +6.3° Ю,Ю-В 2 - 10 км - облачно 735 755 - 95% +5.6° 1 км - - - -
00:00 +6° Ю 2 4 10 км - облачно 736 756 -1.1 94% +5.1° 1 км - - - -
Среда, 25 Апреля
Время местн. Темп Ветер Видим Явления Облачность нижн/средн/верх Атм. давл. Влжн Точка росы ВНГО R Сост. почвы Tg s
Напр Скр Прв ур.ст ур.м изм
21:00 +6.6° Ю,Ю-В 2 8 10 км небо без изменений {ливневые осадки} облачно 738 757 -0.2 79% +3.3° 1 км - - - -
18:00 +11° Ю,Ю-З 4 8 10 км - облачно 738 757 -0.5 39% -2.5° 1 км 0 - - -
15:00 +12.5° Ю 4 8 20 км - облачно 738 758 -1.4 28% -5.4° 1 км - - - -
12:00 +10.8° Ю 3 6 20 км - облачно с прояснениями 739 759 -0.7 27% -7.4° более 2.5 км - - - -
09:00 +8.8° Ю 2 5 20 км - ясно 740 760 +0.1 33% -6.4° более 2.5 км - - - -
06:00 +0.9° В,Ю-В 2 2 10 км - переменная облачность 740 760 +0.2 53% -7.6° более 2.5 км - Замерзшая - -
03:00 -0.5° Ю,Ю-В 1 2 10 км - ясно 740 760 +0.1 55% -8.5° более 2.5 км - - - -
00:00 +1.5° В 1 2 10 км - ясно 740 760 -0.1 47% -8.5° более 2.5 км - - - -
Вторник, 24 Апреля
Время местн. Темп Ветер Видим Явления Облачность нижн/средн/верх Атм. давл. Влжн Точка росы ВНГО R Сост. почвы Tg s
Напр Скр Прв ур.ст ур.м изм
21:00 +2.6° С 1 1 10 км - ясно 740 760 +0.7 43% -8.7° более 2.5 км - - - -
18:00 +7.2° З 3 7 20 км - ясно 739 759 0 33% -7.8° более 2.5 км - - - -
15:00 +7.4° З,С-З 5 10 20 км - переменная облачность 739 759 0 34% -7.4° 1.5 км - - - -
12:00 +5.6° З,С-З 4 8 20 км - переменная облачность 739 759 +0.2 40% -6.8° 1.5 км - - - -
09:00 +2.8° С-З 5 9 20 км - переменная облачность 739 759 +0.9 43% -8.5° 1.5 км - - - -
06:00 -3.4° З 2 5 10 км - ясно 738 759 +0.6 74% -7.4° более 2.5 км - Замерзшая - -
03:00 -2.3° З 3 6 10 км - ясно 737 758 +0.2 70% -7° более 2.5 км - - - -
00:00 -0.7° З 2 6 10 км - ясно 737 758 +0.2 54% -8.8° более 2.5 км - - - -
Понедельник, 23 Апреля
Время местн. Темп Ветер Видим Явления Облачность нижн/средн/верх Атм. давл. Влжн Точка росы ВНГО R Сост. почвы Tg s
Напр Скр Прв ур.ст ур.м изм
21:00 +1.3° С-З 3 6 10 км - переменная облачность 737 757 +1.4 43% -9.9° - - - - -
18:00 +3.7° С 5 9 20 км - переменная облачность 736 756 +1.1 33% -10.9° - - - - -
15:00 +3.8° С 6 12 20 км - облачно 735 755 +0.8 32% -11.2° 1 км - - - -
12:00 +1° С-З 5 11 20 км - облачно 734 754 +1.2 51% -7.9° 1 км - - - -
09:00 +0.2° С-З 5 10 20 км небо без изменений {ливневые осадки} облачно с прояснениями 733 753 +0.8 51% -8.7° 1 км - - - -